createdAt,value
2018-08-17T00:05:44.053Z,70.65
2018-08-17T00:21:18.185Z,74.46
2018-08-17T00:36:52.942Z,73.72
2018-08-17T00:52:27.409Z,74.78
2018-08-17T01:08:02.066Z,75.58
2018-08-17T01:23:36.674Z,77.64
2018-08-17T01:39:11.452Z,79.30
2018-08-17T01:54:45.120Z,79.54
2018-08-17T02:10:19.947Z,78.20
2018-08-17T02:25:54.920Z,77.90
2018-08-17T02:41:29.368Z,77.97
2018-08-17T02:57:04.353Z,78.26
2018-08-17T03:12:38.644Z,76.96
2018-08-17T03:28:13.322Z,77.77
2018-08-17T03:43:47.833Z,78.87
2018-08-17T03:59:22.512Z,79.09
2018-08-17T04:14:55.960Z,79.58
2018-08-17T04:30:30.366Z,79.77
2018-08-17T04:46:04.770Z,79.62
2018-08-17T05:17:36.084Z,74.24
2018-08-17T05:33:10.476Z,71.26
2018-08-17T05:48:44.602Z,64.85
2018-08-17T06:04:18.214Z,48.19
2018-08-17T06:19:52.818Z,41.90
2018-08-17T06:35:28.773Z,33.06
2018-08-17T06:51:03.212Z,32.81
2018-08-17T07:06:37.685Z,31.25
2018-08-17T07:22:11.477Z,27.84
2018-08-17T07:37:45.772Z,27.14
2018-08-17T07:53:20.035Z,29.69
2018-08-17T08:08:54.361Z,29.32
2018-08-17T08:24:28.721Z,24.77
2018-08-17T08:40:03.313Z,27.78
2018-08-17T08:55:36.754Z,26.64
2018-08-17T09:11:11.300Z,27.65
2018-08-17T09:26:45.658Z,29.35
2018-08-17T09:42:20.747Z,26.28
2018-08-17T09:57:55.739Z,28.08
2018-08-17T10:13:30.260Z,28.32
2018-08-17T10:29:04.596Z,29.92
2018-08-17T10:44:39.145Z,28.20
2018-08-17T11:00:13.723Z,26.52
2018-08-17T11:15:48.175Z,38.34
2018-08-17T11:31:23.706Z,56.89
2018-08-17T11:46:57.918Z,80.44
2018-08-17T12:02:32.519Z,79.62
2018-08-17T12:18:07.028Z,72.03
2018-08-17T12:33:49.629Z,74.90
2018-08-17T12:49:24.351Z,63.92
2018-08-17T13:04:58.432Z,60.55
2018-08-17T13:20:32.650Z,51.71
2018-08-17T13:36:07.165Z,53.36
2018-08-17T13:51:40.260Z,54.11
2018-08-17T14:07:14.758Z,48.29
2018-08-17T14:23:04.368Z,40.57
2018-08-17T14:38:47.198Z,39.30
2018-08-17T14:54:21.663Z,38.55
2018-08-17T15:09:56.319Z,50.63
2018-08-17T15:25:30.500Z,53.89
2018-08-17T15:41:05.336Z,60.93
2018-08-17T15:56:39.955Z,66.32
2018-08-17T16:12:14.256Z,64.64
2018-08-17T16:27:49.242Z,62.82
2018-08-17T16:43:23.511Z,65.34
2018-08-17T16:58:58.049Z,63.31
2018-08-17T17:14:31.981Z,61.77
2018-08-17T17:30:06.909Z,59.49
2018-08-17T17:45:41.575Z,61.70
2018-08-17T18:01:17.026Z,62.90
2018-08-17T18:16:51.295Z,63.76
2018-08-17T18:32:26.059Z,65.02
2018-08-17T18:47:59.754Z,65.71
2018-08-17T19:03:33.886Z,65.26
2018-08-17T19:19:08.102Z,64.97
2018-08-17T19:34:43.474Z,64.88
2018-08-17T19:50:18.088Z,68.26
2018-08-17T20:05:52.693Z,71.98
2018-08-17T20:21:27.215Z,76.91
2018-08-17T20:37:00.903Z,79.49
2018-08-17T20:52:33.918Z,81.74
2018-08-17T21:08:08.277Z,84.44
2018-08-17T21:23:41.663Z,84.96
2018-08-17T21:39:47.771Z,83.27
2018-08-17T21:55:22.436Z,79.23
2018-08-17T22:10:56.782Z,77.44
2018-08-17T22:26:31.416Z,80.54
2018-08-17T22:42:06.268Z,84.57
2018-08-17T22:57:40.530Z,86.50
2018-08-17T23:13:14.454Z,87.95
2018-08-17T23:28:48.030Z,88.95
2018-08-17T23:44:22.538Z,90.31
2018-08-17T23:59:56.846Z,91.51
